Time;durP1;ratioP1;P1;durP2;ratioP2;P2;SDS_P1;SDS_P2;PMS_P1;PMS_P2;Temp;Humidity;BMP_temperature;BMP_pressure;BME280_temperature;BME280_humidity;BME280_pressure;Samples;Min_cycle;Max_cycle;Signal;HPM_P1;HPM_P2
2022/02/27 00:01:46;;;;;;;13.50;6.00;;;0.10;97.30;;;;;;5052304;28;20184;-76
2022/02/27 00:04:12;;;;;;;20.60;7.13;;;0.10;97.30;;;;;;5054358;28;20203;-80
2022/02/27 00:06:37;;;;;;;18.47;7.40;;;0.10;97.30;;;;;;5056171;28;20703;-80
2022/02/27 00:09:03;;;;;;;12.07;6.33;;;0.10;97.30;;;;;;5057273;28;20175;-81
2022/02/27 00:11:29;;;;;;;14.50;7.10;;;0.10;97.30;;;;;;5055505;28;20302;-80
2022/02/27 00:13:54;;;;;;;10.60;5.47;;;0.10;97.30;;;;;;5055735;28;20239;-80
2022/02/27 00:16:20;;;;;;;11.00;5.53;;;0.10;97.30;;;;;;5056392;28;20278;-81
2022/02/27 00:18:45;;;;;;;14.20;6.30;;;0.00;97.30;;;;;;5056351;28;20188;-77
2022/02/27 00:21:11;;;;;;;15.33;6.30;;;0.10;97.30;;;;;;5051162;28;20180;-77
2022/02/27 00:23:36;;;;;;;10.07;6.80;;;0.10;97.30;;;;;;5051001;28;20208;-77
2022/02/27 00:26:02;;;;;;;15.40;6.60;;;0.10;97.30;;;;;;5066235;28;20194;-77
2022/02/27 00:28:28;;;;;;;16.30;7.40;;;0.10;97.30;;;;;;5053700;28;20890;-76
2022/02/27 00:30:53;;;;;;;16.43;5.90;;;0.10;97.30;;;;;;5071916;28;20179;-77
2022/02/27 00:33:19;;;;;;;13.33;5.93;;;0.10;97.30;;;;;;5054018;28;20205;-77
2022/02/27 00:35:44;;;;;;;11.53;5.60;;;0.10;97.30;;;;;;5071999;28;20199;-77
2022/02/27 00:38:10;;;;;;;13.90;5.67;;;0.10;97.30;;;;;;5072024;28;20228;-77
2022/02/27 00:40:38;;;;;;;12.73;6.47;;;0.20;97.30;;;;;;5054614;28;20175;-77
2022/02/27 00:43:04;;;;;;;14.73;6.50;;;0.20;97.30;;;;;;5054384;28;20437;-77
2022/02/27 00:45:29;;;;;;;12.50;6.60;;;0.30;97.30;;;;;;5072347;28;20461;-77
2022/02/27 00:47:55;;;;;;;13.57;6.60;;;0.30;97.30;;;;;;5072275;28;20466;-77
2022/02/27 00:50:20;;;;;;;11.00;5.43;;;0.30;97.30;;;;;;5072347;28;20291;-77
2022/02/27 00:52:46;;;;;;;12.70;6.60;;;0.30;97.30;;;;;;5053749;28;20199;-77
2022/02/27 00:55:12;;;;;;;14.00;7.70;;;0.30;97.30;;;;;;5053862;28;20282;-77
2022/02/27 00:57:37;;;;;;;14.03;6.47;;;0.20;97.30;;;;;;5071863;28;20175;-77
2022/02/27 01:00:07;;;;;;;11.70;6.00;;;0.20;97.30;;;;;;5053774;28;20181;-77
2022/02/27 01:02:33;;;;;;;13.83;6.40;;;0.20;97.30;;;;;;5053421;28;20274;-77
2022/02/27 01:04:58;;;;;;;17.13;6.00;;;0.20;97.30;;;;;;5071985;28;20544;-77
2022/02/27 01:07:24;;;;;;;13.37;6.70;;;0.20;97.30;;;;;;5071734;28;20183;-77
2022/02/27 01:09:50;;;;;;;13.67;6.07;;;0.20;97.30;;;;;;5053947;28;20171;-77
2022/02/27 01:12:15;;;;;;;12.67;6.97;;;0.20;97.30;;;;;;5052892;28;20242;-77
2022/02/27 01:14:41;;;;;;;18.03;7.10;;;0.20;97.30;;;;;;5053619;28;20253;-78
2022/02/27 01:17:06;;;;;;;15.70;7.10;;;0.20;97.30;;;;;;5053426;28;20186;-77
2022/02/27 01:19:35;;;;;;;13.93;7.17;;;0.20;97.30;;;;;;5052577;28;20183;-77
2022/02/27 01:22:01;;;;;;;28.97;8.30;;;0.20;97.30;;;;;;5070991;28;20434;-77
2022/02/27 01:24:27;;;;;;;18.50;7.20;;;0.20;97.30;;;;;;5071059;28;20541;-77
2022/02/27 01:26:52;;;;;;;15.37;7.40;;;0.20;97.30;;;;;;5053208;28;20466;-77
2022/02/27 01:29:18;;;;;;;26.87;7.90;;;0.30;97.30;;;;;;5071182;28;20179;-77
2022/02/27 01:31:44;;;;;;;16.20;8.40;;;0.30;97.30;;;;;;5053377;28;20635;-77
2022/02/27 01:34:10;;;;;;;19.00;8.63;;;0.30;97.30;;;;;;5071307;28;20167;-77
2022/02/27 01:36:35;;;;;;;21.43;8.87;;;0.30;97.30;;;;;;5071184;28;20713;-77
2022/02/27 01:39:01;;;;;;;16.53;8.10;;;0.30;97.30;;;;;;5052992;28;20179;-77
2022/02/27 01:41:27;;;;;;;22.20;7.27;;;0.30;97.30;;;;;;5052125;28;20368;-77
2022/02/27 01:43:53;;;;;;;24.60;7.27;;;0.30;97.30;;;;;;5052691;28;20252;-77
2022/02/27 01:46:18;;;;;;;19.07;8.87;;;0.20;97.30;;;;;;5052744;28;20256;-77
2022/02/27 01:48:44;;;;;;;15.17;6.57;;;0.20;97.30;;;;;;5053197;28;20520;-77
2022/02/27 01:51:11;;;;;;;15.27;6.57;;;0.10;97.30;;;;;;5052921;28;20664;-77
2022/02/27 01:53:36;;;;;;;15.30;8.40;;;0.10;97.30;;;;;;5070636;28;20616;-77
2022/02/27 01:56:03;;;;;;;17.27;7.17;;;0.00;97.30;;;;;;5070602;28;20416;-77
2022/02/27 01:58:29;;;;;;;15.20;7.67;;;-0.10;97.30;;;;;;5070501;28;20211;-77
2022/02/27 02:00:57;;;;;;;17.27;6.93;;;-0.10;97.30;;;;;;5052515;28;20427;-77
2022/02/27 02:03:23;;;;;;;14.97;7.33;;;-0.10;97.30;;;;;;5052620;28;20440;-77
2022/02/27 02:05:49;;;;;;;16.60;8.10;;;-0.10;97.30;;;;;;5052187;28;20420;-77
2022/02/27 02:08:15;;;;;;;23.13;7.97;;;-0.10;97.30;;;;;;5070231;28;20483;-77
2022/02/27 02:10:41;;;;;;;16.30;7.10;;;-0.10;97.30;;;;;;5052257;28;20178;-77
2022/02/27 02:13:07;;;;;;;16.10;8.70;;;-0.10;97.30;;;;;;5069909;28;20219;-77
2022/02/27 02:15:33;;;;;;;14.57;6.83;;;-0.20;97.30;;;;;;5070391;28;20410;-77
2022/02/27 02:17:58;;;;;;;19.27;8.63;;;-0.20;97.30;;;;;;5052779;28;20266;-77
2022/02/27 02:20:24;;;;;;;18.80;8.23;;;-0.20;97.30;;;;;;5070761;28;20627;-77
2022/02/27 02:22:49;;;;;;;17.10;9.00;;;-0.30;97.30;;;;;;5069877;28;20272;-77
2022/02/27 02:25:15;;;;;;;18.40;10.00;;;-0.30;97.30;;;;;;5052088;28;20578;-77
2022/02/27 02:27:41;;;;;;;23.30;9.53;;;-0.30;97.30;;;;;;5052555;28;20225;-77
2022/02/27 02:30:09;;;;;;;16.10;7.93;;;-0.40;97.30;;;;;;5070517;28;20175;-77
2022/02/27 02:32:49;;;;;;;24.70;9.20;;;-0.40;97.30;;;;;;5070193;28;20934;-77
2022/02/27 02:35:14;;;;;;;20.40;8.40;;;-0.40;97.30;;;;;;5049170;28;20923;-77
2022/02/27 02:37:40;;;;;;;16.70;6.67;;;-0.40;97.30;;;;;;5048732;28;20416;-77
2022/02/27 02:40:06;;;;;;;17.77;7.83;;;-0.40;97.30;;;;;;5048640;28;20184;-77
2022/02/27 02:42:41;;;;;;;19.20;7.97;;;-0.50;97.30;;;;;;5047954;28;20200;-77
2022/02/27 02:45:08;;;;;;;10.60;6.90;;;-0.40;97.30;;;;;;5049794;28;20516;-77
2022/02/27 02:47:37;;;;;;;17.57;8.43;;;-0.50;97.30;;;;;;5048549;28;20954;-77
2022/02/27 02:50:03;;;;;;;16.60;7.43;;;-0.50;97.30;;;;;;5057421;28;20497;-77
2022/02/27 02:52:29;;;;;;;14.90;7.47;;;-0.50;97.30;;;;;;5054253;28;20907;-79
2022/02/27 02:54:55;;;;;;;17.37;8.43;;;-0.50;97.30;;;;;;5054782;28;20497;-79
2022/02/27 02:57:20;;;;;;;19.23;7.90;;;-0.50;97.30;;;;;;5057314;28;20192;-79
2022/02/27 02:59:46;;;;;;;17.73;7.23;;;-0.50;97.30;;;;;;5057511;28;20263;-79
2022/02/27 03:02:11;;;;;;;16.27;7.53;;;-0.50;97.30;;;;;;5055666;28;20207;-79
2022/02/27 03:04:37;;;;;;;14.53;7.10;;;-0.60;97.30;;;;;;5052072;28;20260;-78
2022/02/27 03:07:03;;;;;;;24.33;9.43;;;-0.60;97.30;;;;;;5049875;28;20267;-77
2022/02/27 03:09:28;;;;;;;12.80;7.63;;;-0.60;97.30;;;;;;5048757;28;20186;-78
2022/02/27 03:11:54;;;;;;;18.80;7.60;;;-0.60;97.30;;;;;;5048258;28;20422;-78
2022/02/27 03:14:20;;;;;;;19.87;8.80;;;-0.60;97.30;;;;;;5048485;28;20223;-77
2022/02/27 03:16:45;;;;;;;17.13;8.00;;;-0.60;97.30;;;;;;5048693;28;20179;-78
2022/02/27 03:19:11;;;;;;;28.40;8.70;;;-0.70;97.30;;;;;;5048688;28;20182;-77
2022/02/27 03:21:38;;;;;;;23.60;8.07;;;-0.70;97.30;;;;;;5049053;28;20190;-77
2022/02/27 03:24:04;;;;;;;16.43;7.73;;;-0.70;97.30;;;;;;5049040;28;20470;-76
2022/02/27 03:26:29;;;;;;;20.33;8.63;;;-0.70;97.30;;;;;;5048645;28;20440;-77
2022/02/27 03:28:55;;;;;;;16.17;7.60;;;-0.80;97.30;;;;;;5051471;28;20497;-78
2022/02/27 03:31:21;;;;;;;14.73;7.73;;;-0.80;97.30;;;;;;5054143;28;20261;-79
2022/02/27 03:33:47;;;;;;;14.70;7.67;;;-0.80;97.30;;;;;;5054028;28;20282;-78
2022/02/27 03:36:13;;;;;;;14.50;7.60;;;-0.90;97.30;;;;;;5070333;28;20421;-78
2022/02/27 03:38:39;;;;;;;14.30;7.03;;;-0.90;97.30;;;;;;5051212;28;20429;-77
2022/02/27 03:41:05;;;;;;;15.97;7.73;;;-0.90;97.30;;;;;;5051112;28;20270;-77
2022/02/27 03:43:31;;;;;;;17.90;7.90;;;-0.90;97.30;;;;;;5051217;28;20850;-76
2022/02/27 03:45:57;;;;;;;22.00;9.03;;;-0.90;97.30;;;;;;5051101;28;20185;-77
2022/02/27 03:48:22;;;;;;;18.77;7.33;;;-0.90;97.30;;;;;;5069321;28;20413;-76
2022/02/27 03:50:48;;;;;;;19.93;9.17;;;-0.90;97.30;;;;;;5069323;28;20196;-77
2022/02/27 03:53:14;;;;;;;25.57;8.20;;;-0.80;97.30;;;;;;5068884;28;20214;-75
2022/02/27 03:55:39;;;;;;;16.57;9.00;;;-0.70;97.30;;;;;;5050950;28;20209;-77
2022/02/27 03:58:05;;;;;;;25.83;10.70;;;-0.60;97.30;;;;;;5051025;28;20190;-76
2022/02/27 04:00:31;;;;;;;25.20;8.90;;;-0.60;97.30;;;;;;5067839;28;20186;-77
2022/02/27 04:02:56;;;;;;;24.57;9.37;;;-0.50;97.30;;;;;;5069190;28;20231;-77
2022/02/27 04:05:22;;;;;;;20.30;8.60;;;-0.50;97.30;;;;;;5054888;28;20211;-77
2022/02/27 04:07:47;;;;;;;20.27;9.27;;;-0.50;97.30;;;;;;5055600;28;20175;-76
2022/02/27 04:10:13;;;;;;;19.10;8.87;;;-0.40;97.30;;;;;;5055508;28;20652;-77
2022/02/27 04:12:39;;;;;;;21.20;10.53;;;-0.40;97.30;;;;;;5055049;28;20235;-77
2022/02/27 04:15:06;;;;;;;21.90;8.13;;;-0.30;97.30;;;;;;5055589;28;20411;-77
2022/02/27 04:17:31;;;;;;;29.33;9.60;;;-0.30;97.30;;;;;;5054873;28;20498;-76
2022/02/27 04:19:57;;;;;;;18.23;8.73;;;-0.30;97.30;;;;;;5054402;28;20816;-77
2022/02/27 04:22:23;;;;;;;25.10;11.40;;;-0.30;97.30;;;;;;5054485;28;20292;-77
2022/02/27 04:24:49;;;;;;;31.40;10.20;;;-0.30;97.30;;;;;;5054516;28;20990;-77
2022/02/27 04:27:14;;;;;;;26.77;10.20;;;-0.30;97.30;;;;;;5054636;28;20536;-77
2022/02/27 04:29:41;;;;;;;17.50;9.37;;;-0.30;97.30;;;;;;5070788;28;20670;-77
2022/02/27 04:32:07;;;;;;;27.73;10.10;;;-0.30;97.30;;;;;;5072218;28;20198;-77
2022/02/27 04:34:33;;;;;;;21.77;9.10;;;-0.30;97.30;;;;;;5050661;28;20426;-77
2022/02/27 04:36:58;;;;;;;22.13;10.07;;;-0.30;97.30;;;;;;5052304;28;20420;-77
2022/02/27 04:39:24;;;;;;;20.63;9.57;;;-0.30;97.30;;;;;;5051056;28;20214;-77
2022/02/27 04:41:49;;;;;;;32.43;9.97;;;-0.30;97.30;;;;;;5050707;28;20190;-77
2022/02/27 04:44:15;;;;;;;25.60;9.77;;;-0.30;97.30;;;;;;5050459;28;20234;-76
2022/02/27 04:46:41;;;;;;;24.60;9.70;;;-0.30;97.30;;;;;;5050721;28;20190;-77
2022/02/27 04:49:06;;;;;;;19.53;9.53;;;-0.30;97.30;;;;;;5050944;28;20182;-76
2022/02/27 04:51:32;;;;;;;22.53;9.80;;;-0.30;97.30;;;;;;5051851;28;20180;-77
2022/02/27 04:53:57;;;;;;;26.90;10.80;;;-0.30;97.30;;;;;;5051794;28;20195;-76
2022/02/27 04:56:23;;;;;;;23.50;10.93;;;-0.30;97.30;;;;;;5051777;28;20249;-76
2022/02/27 04:58:49;;;;;;;21.80;10.03;;;-0.40;97.30;;;;;;5051762;28;20269;-76
2022/02/27 05:01:14;;;;;;;18.73;9.10;;;-0.40;97.30;;;;;;5050466;28;20267;-76
2022/02/27 05:03:40;;;;;;;21.43;9.60;;;-0.50;97.30;;;;;;5052203;28;20231;-76
2022/02/27 05:06:05;;;;;;;21.00;8.77;;;-0.50;97.30;;;;;;5051969;28;20179;-76
2022/02/27 05:08:31;;;;;;;33.90;10.17;;;-0.60;97.30;;;;;;5050304;28;20195;-76
2022/02/27 05:10:56;;;;;;;26.57;9.40;;;-0.60;97.30;;;;;;5050232;28;20179;-76
2022/02/27 05:13:22;;;;;;;23.40;9.30;;;-0.60;97.30;;;;;;5051324;28;20259;-77
2022/02/27 05:15:48;;;;;;;19.13;9.57;;;-0.60;97.30;;;;;;5050102;28;20168;-77
2022/02/27 05:18:13;;;;;;;21.60;11.40;;;-0.60;97.30;;;;;;5050094;28;20181;-76
2022/02/27 05:20:39;;;;;;;18.30;9.90;;;-0.60;97.30;;;;;;5049943;28;20652;-77
2022/02/27 05:23:05;;;;;;;29.40;12.83;;;-0.60;97.30;;;;;;5049831;28;20199;-76
2022/02/27 05:25:30;;;;;;;28.40;11.23;;;-0.60;97.30;;;;;;5049686;28;20945;-77
2022/02/27 05:27:56;;;;;;;24.53;11.00;;;-0.60;97.30;;;;;;5056438;28;20530;-76
2022/02/27 05:30:23;;;;;;;47.13;11.20;;;-0.50;97.30;;;;;;5054485;28;20189;-78
2022/02/27 05:32:50;;;;;;;28.90;10.73;;;-0.50;97.30;;;;;;5054921;28;20218;-78
2022/02/27 05:35:17;;;;;;;28.63;11.23;;;-0.60;97.30;;;;;;5054927;28;20522;-78
2022/02/27 05:37:42;;;;;;;25.87;9.83;;;-0.60;97.30;;;;;;5054971;28;20439;-78
2022/02/27 05:40:09;;;;;;;30.67;11.33;;;-0.60;97.30;;;;;;5054936;28;20417;-79
2022/02/27 05:42:35;;;;;;;28.17;10.87;;;-0.60;97.30;;;;;;5055020;28;20510;-78
2022/02/27 05:45:01;;;;;;;39.33;11.27;;;-0.60;97.30;;;;;;5054319;28;20462;-79
2022/02/27 05:47:27;;;;;;;23.07;9.93;;;-0.60;97.30;;;;;;5054697;28;20772;-79
2022/02/27 05:49:53;;;;;;;24.47;10.43;;;-0.60;97.30;;;;;;5054591;28;20786;-79
2022/02/27 05:52:19;;;;;;;34.47;11.43;;;-0.60;97.30;;;;;;5055443;28;20195;-79
2022/02/27 05:54:45;;;;;;;25.47;10.47;;;-0.60;97.30;;;;;;5054284;28;20228;-79
2022/02/27 05:57:12;;;;;;;30.30;11.83;;;-0.60;97.30;;;;;;5073861;28;20511;-78
2022/02/27 05:59:38;;;;;;;37.57;11.27;;;-0.60;97.30;;;;;;5055679;28;20429;-79
2022/02/27 06:02:04;;;;;;;29.77;9.63;;;-0.60;97.30;;;;;;5058457;28;20506;-80
2022/02/27 06:04:30;;;;;;;33.17;10.10;;;-0.60;97.30;;;;;;5057141;28;20460;-80
2022/02/27 06:06:55;;;;;;;47.83;10.60;;;-0.60;97.30;;;;;;5057335;28;20711;-80
2022/02/27 06:09:21;;;;;;;34.23;10.30;;;-0.60;97.30;;;;;;5074489;28;20201;-80
2022/02/27 06:11:47;;;;;;;38.77;10.93;;;-0.50;97.30;;;;;;5074756;28;20202;-80
2022/02/27 06:14:13;;;;;;;34.20;10.40;;;-0.50;97.30;;;;;;5057314;28;20186;-80
2022/02/27 06:16:38;;;;;;;44.20;11.00;;;-0.50;97.30;;;;;;5056579;28;20215;-80
2022/02/27 06:19:04;;;;;;;39.40;10.67;;;-0.50;97.30;;;;;;5057312;28;20424;-79
2022/02/27 06:21:30;;;;;;;34.17;10.83;;;-0.40;97.30;;;;;;5056769;28;20179;-80
2022/02/27 06:23:55;;;;;;;34.70;10.43;;;-0.40;97.30;;;;;;5057429;28;20306;-80
2022/02/27 06:26:21;;;;;;;39.63;11.30;;;-0.30;97.30;;;;;;5056973;28;20225;-81
2022/02/27 06:28:46;;;;;;;51.70;14.17;;;-0.30;97.30;;;;;;5054105;28;20257;-80
2022/02/27 06:31:13;;;;;;;32.97;11.83;;;-0.30;97.30;;;;;;5070113;28;20182;-80
2022/02/27 06:33:39;;;;;;;36.33;12.70;;;-0.30;97.30;;;;;;5072182;28;20191;-81
2022/02/27 06:36:04;;;;;;;35.27;12.30;;;-0.30;97.30;;;;;;5058884;28;20428;-81
2022/02/27 06:38:31;;;;;;;55.03;15.10;;;-0.30;97.30;;;;;;5059973;28;20179;-81
2022/02/27 06:40:57;;;;;;;44.13;14.43;;;-0.20;97.30;;;;;;5066090;28;20423;-81
2022/02/27 06:43:23;;;;;;;37.33;15.03;;;-0.20;97.30;;;;;;5076311;28;20500;-81
2022/02/27 06:45:49;;;;;;;33.53;12.27;;;-0.10;97.30;;;;;;5059760;28;20188;-81
2022/02/27 06:48:14;;;;;;;28.63;12.57;;;-0.10;97.30;;;;;;5052221;28;20511;-81
2022/02/27 06:50:40;;;;;;;28.90;11.30;;;0.00;97.30;;;;;;5054441;28;20179;-82
2022/02/27 06:53:06;;;;;;;23.73;10.33;;;0.00;97.30;;;;;;5056286;28;20218;-82
2022/02/27 06:55:31;;;;;;;26.50;10.17;;;0.10;97.30;;;;;;5057874;28;20266;-81
2022/02/27 06:57:57;;;;;;;35.40;11.47;;;0.10;97.30;;;;;;5057274;28;20189;-81
2022/02/27 07:00:22;;;;;;;41.17;11.87;;;0.20;97.30;;;;;;5074559;28;20174;-82
2022/02/27 07:02:48;;;;;;;32.60;10.67;;;0.30;97.30;;;;;;5055016;28;20496;-82
2022/02/27 07:05:14;;;;;;;31.93;11.10;;;0.40;97.30;;;;;;5055993;28;20208;-82
2022/02/27 07:07:40;;;;;;;28.00;10.40;;;0.40;97.30;;;;;;5053701;28;20413;-82
2022/02/27 07:10:07;;;;;;;29.50;10.43;;;0.50;97.30;;;;;;5056197;28;20186;-82
2022/02/27 07:12:37;;;;;;;32.57;10.20;;;0.50;97.30;;;;;;5073202;28;20249;-82
2022/02/27 07:15:04;;;;;;;40.27;11.40;;;0.60;97.30;;;;;;5053109;28;20417;-81
2022/02/27 07:17:30;;;;;;;21.70;9.37;;;0.60;97.30;;;;;;5047804;28;20425;-82
2022/02/27 07:19:55;;;;;;;28.87;11.07;;;0.60;97.30;;;;;;5055379;28;20425;-83
2022/02/27 07:22:21;;;;;;;33.10;11.70;;;0.60;97.30;;;;;;5048990;28;20218;-83
2022/02/27 07:24:47;;;;;;;36.20;12.33;;;0.60;97.30;;;;;;5056368;28;20211;-83
2022/02/27 07:27:14;;;;;;;32.77;11.37;;;0.60;97.30;;;;;;5055797;28;20409;-83
2022/02/27 07:29:40;;;;;;;33.80;11.43;;;0.60;97.30;;;;;;5056120;28;20896;-81
2022/02/27 07:32:11;;;;;;;32.27;9.87;;;0.60;97.30;;;;;;5054451;28;20440;-81
2022/02/27 07:34:40;;;;;;;43.83;10.23;;;0.70;97.30;;;;;;5056743;28;20432;-81
2022/02/27 07:37:06;;;;;;;32.70;12.20;;;0.70;97.30;;;;;;5056323;28;20448;-81
2022/02/27 07:39:33;;;;;;;38.90;11.30;;;0.80;97.30;;;;;;5056245;28;20418;-81
2022/02/27 07:41:59;;;;;;;43.43;12.37;;;0.80;97.30;;;;;;5076722;28;20270;-81
2022/02/27 07:44:24;;;;;;;27.43;10.30;;;0.90;97.30;;;;;;5061116;28;20479;-81
2022/02/27 07:46:51;;;;;;;30.17;13.00;;;0.90;97.30;;;;;;5061212;28;20179;-81
2022/02/27 07:49:16;;;;;;;41.50;15.27;;;0.90;97.30;;;;;;5058787;28;20209;-81
2022/02/27 07:51:42;;;;;;;31.87;12.17;;;1.00;97.30;;;;;;5078586;28;20910;-81
2022/02/27 07:54:09;;;;;;;28.30;9.80;;;1.00;97.30;;;;;;5060698;28;20264;-81
2022/02/27 07:56:34;;;;;;;24.63;10.53;;;1.10;97.30;;;;;;5059941;28;20452;-82
2022/02/27 07:59:00;;;;;;;30.53;11.50;;;1.20;97.30;;;;;;5057709;28;20436;-82
2022/02/27 08:01:29;;;;;;;27.50;10.80;;;1.20;97.30;;;;;;5056984;28;20175;-82
2022/02/27 08:03:57;;;;;;;35.00;12.13;;;1.30;97.30;;;;;;5078344;28;20514;-82
2022/02/27 08:06:23;;;;;;;33.90;14.17;;;1.30;97.30;;;;;;5057348;28;20440;-82
2022/02/27 08:08:49;;;;;;;28.07;12.37;;;1.30;97.30;;;;;;5054688;28;20444;-82
2022/02/27 08:11:15;;;;;;;36.80;15.43;;;1.40;97.30;;;;;;5060617;28;20807;-82
2022/02/27 08:13:41;;;;;;;31.03;12.37;;;1.40;97.30;;;;;;5058192;28;20218;-82
2022/02/27 08:16:06;;;;;;;24.10;11.83;;;1.50;97.30;;;;;;5078929;28;20206;-82
2022/02/27 08:18:33;;;;;;;27.37;12.23;;;1.60;97.30;;;;;;5060901;28;20551;-82
2022/02/27 08:20:59;;;;;;;39.60;11.97;;;1.70;97.30;;;;;;5059551;28;20656;-82
2022/02/27 08:23:25;;;;;;;37.67;15.03;;;1.60;97.30;;;;;;5061204;28;20433;-83
2022/02/27 08:25:54;;;;;;;37.93;15.80;;;1.60;97.30;;;;;;5049299;28;20638;-83
2022/02/27 08:28:22;;;;;;;38.73;14.90;;;1.70;97.30;;;;;;5059059;28;20899;-82
2022/02/27 08:30:48;;;;;;;44.00;18.13;;;1.70;97.30;;;;;;5059234;28;20424;-82
2022/02/27 08:33:14;;;;;;;35.03;12.53;;;1.80;97.30;;;;;;5059252;28;20512;-83
2022/02/27 08:35:40;;;;;;;44.27;16.00;;;1.90;97.30;;;;;;5060043;28;20460;-83
2022/02/27 08:38:05;;;;;;;27.57;11.30;;;2.00;97.30;;;;;;5059820;28;20416;-83
2022/02/27 08:40:31;;;;;;;51.50;18.03;;;2.00;97.30;;;;;;5075951;28;20201;-83
2022/02/27 08:42:59;;;;;;;44.10;15.20;;;2.10;97.30;;;;;;5050133;28;20459;-83
2022/02/27 08:45:25;;;;;;;45.57;18.00;;;2.10;97.30;;;;;;5039523;28;20230;-82
2022/02/27 08:47:52;;;;;;;49.67;17.40;;;2.20;97.30;;;;;;5056975;28;20407;-82
2022/02/27 08:50:18;;;;;;;33.00;12.30;;;2.30;97.30;;;;;;5074315;28;20414;-82
2022/02/27 08:52:43;;;;;;;25.63;10.50;;;2.40;97.30;;;;;;5058608;28;20434;-83
2022/02/27 08:55:11;;;;;;;31.43;12.30;;;2.50;97.30;;;;;;5059478;28;20422;-83
2022/02/27 08:57:38;;;;;;;36.93;14.17;;;2.60;97.30;;;;;;5059933;28;20756;-83
2022/02/27 09:00:09;;;;;;;32.40;11.07;;;2.60;97.30;;;;;;5060735;28;20445;-83
2022/02/27 09:02:35;;;;;;;27.93;11.97;;;2.70;97.30;;;;;;5041044;28;20474;-83
2022/02/27 09:05:01;;;;;;;24.33;11.83;;;2.70;97.30;;;;;;5050735;28;20889;-83
2022/02/27 09:07:27;;;;;;;31.87;12.97;;;2.80;97.30;;;;;;5037751;28;20747;-83
2022/02/27 09:09:53;;;;;;;26.77;11.87;;;2.80;97.30;;;;;;5052354;28;20429;-83
2022/02/27 09:12:18;;;;;;;31.07;11.47;;;2.90;97.30;;;;;;5055708;28;20313;-83
2022/02/27 09:14:45;;;;;;;27.30;12.47;;;2.90;97.30;;;;;;5051939;28;20184;-83
2022/02/27 09:17:12;;;;;;;29.47;11.60;;;3.10;97.30;;;;;;5057754;28;20179;-84
2022/02/27 09:19:37;;;;;;;27.80;11.10;;;3.20;97.30;;;;;;5056406;28;20460;-83
2022/02/27 09:22:04;;;;;;;28.93;11.10;;;3.30;97.30;;;;;;5056039;28;20468;-83
2022/02/27 09:24:29;;;;;;;27.50;10.97;;;3.40;97.30;;;;;;5073776;28;20290;-83
2022/02/27 09:26:55;;;;;;;22.73;10.80;;;3.50;97.30;;;;;;5052215;28;20545;-83
2022/02/27 09:29:24;;;;;;;31.47;10.93;;;3.70;97.30;;;;;;5052096;28;20172;-83
2022/02/27 09:31:51;;;;;;;22.13;10.07;;;3.90;97.30;;;;;;5051178;28;20184;-84
2022/02/27 09:34:16;;;;;;;24.13;10.60;;;4.00;97.30;;;;;;5054734;28;20513;-85
2022/02/27 09:36:42;;;;;;;24.40;11.20;;;4.10;97.30;;;;;;5055591;28;20469;-84
2022/02/27 09:39:09;;;;;;;26.17;9.83;;;4.10;97.30;;;;;;5055875;28;20672;-83
2022/02/27 09:41:34;;;;;;;30.00;13.00;;;4.10;97.30;;;;;;5055140;28;20840;-83
2022/02/27 09:44:03;;;;;;;22.63;10.87;;;4.10;97.30;;;;;;5054461;28;20459;-83
2022/02/27 09:46:31;;;;;;;27.87;10.97;;;4.10;97.30;;;;;;5054665;28;20392;-84
2022/02/27 09:48:57;;;;;;;31.77;12.43;;;4.30;97.30;;;;;;5054997;28;20453;-83
2022/02/27 09:51:23;;;;;;;28.43;11.10;;;4.40;97.30;;;;;;5055615;28;20405;-83
2022/02/27 09:53:49;;;;;;;28.23;10.40;;;4.50;97.30;;;;;;5054562;28;20441;-83
2022/02/27 09:56:16;;;;;;;25.60;10.20;;;4.60;97.30;;;;;;5054754;28;20433;-83
2022/02/27 09:58:44;;;;;;;27.03;10.70;;;4.60;97.30;;;;;;5054099;28;20773;-84
2022/02/27 10:01:12;;;;;;;23.30;9.20;;;4.60;97.30;;;;;;5071381;28;20413;-83
2022/02/27 10:03:38;;;;;;;23.40;10.73;;;4.70;97.30;;;;;;5054632;28;20447;-83
2022/02/27 10:06:06;;;;;;;27.53;11.03;;;4.70;97.30;;;;;;5072619;28;20397;-84
2022/02/27 10:08:43;;;;;;;26.60;10.63;;;4.60;97.30;;;;;;5054890;28;20546;-83
2022/02/27 10:11:27;;;;;;;27.20;10.50;;;4.60;97.30;;;;;;5054747;28;20441;-84
2022/02/27 10:13:55;;;;;;;20.80;10.03;;;4.50;97.30;;;;;;5054582;28;20476;-84
2022/02/27 10:16:23;;;;;;;27.03;9.50;;;4.40;97.30;;;;;;5055610;28;20512;-83
2022/02/27 10:18:51;;;;;;;26.33;10.40;;;4.40;97.30;;;;;;5054729;28;20417;-83
2022/02/27 10:21:19;;;;;;;23.30;9.73;;;4.60;97.30;;;;;;5053614;28;20791;-83
2022/02/27 10:23:54;;;;;;;22.77;9.77;;;4.80;97.30;;;;;;5052795;28;20831;-83
2022/02/27 10:26:21;;;;;;;24.47;10.67;;;4.90;97.30;;;;;;5053719;28;20413;-83
2022/02/27 10:29:13;;;;;;;25.90;10.87;;;5.20;97.30;;;;;;5050439;28;20418;-83
2022/02/27 10:31:41;;;;;;;27.80;12.37;;;5.40;97.30;;;;;;5043727;28;20423;-83
2022/02/27 10:34:42;;;;;;;22.83;10.50;;;5.50;97.30;;;;;;5051782;28;20983;-83
2022/02/27 10:37:09;;;;;;;25.80;11.50;;;5.70;97.30;;;;;;5051179;28;20414;-83
2022/02/27 10:39:42;;;;;;;25.30;10.40;;;5.80;97.30;;;;;;5053164;28;20417;-84
2022/02/27 10:42:20;;;;;;;24.73;11.67;;;5.90;97.30;;;;;;5053129;28;20449;-84
2022/02/27 10:45:05;;;;;;;22.93;11.40;;;6.00;97.30;;;;;;5052868;28;20460;-83
2022/02/27 10:47:37;;;;;;;25.83;10.80;;;6.10;97.30;;;;;;5071270;28;20492;-83
2022/02/27 10:50:09;;;;;;;25.70;11.53;;;6.10;97.30;;;;;;5052069;28;20425;-85
2022/02/27 10:52:35;;;;;;;21.97;10.10;;;6.20;97.30;;;;;;5052500;28;20470;-84
2022/02/27 10:55:08;;;;;;;19.07;10.07;;;6.40;97.30;;;;;;5071494;28;20401;-83
2022/02/27 10:57:44;;;;;;;17.63;9.60;;;6.60;97.30;;;;;;5049827;28;20183;-84
2022/02/27 11:00:15;;;;;;;19.30;9.40;;;6.70;97.30;;;;;;5050689;28;20422;-83
2022/02/27 11:02:56;;;;;;;20.17;9.80;;;6.80;97.30;;;;;;5051007;28;20464;-83
2022/02/27 11:05:28;;;;;;;20.50;9.50;;;6.90;97.30;;;;;;5052850;28;20925;-84
2022/02/27 11:07:56;;;;;;;18.33;8.77;;;6.90;97.30;;;;;;5053186;28;20496;-83
2022/02/27 11:10:24;;;;;;;17.70;9.67;;;7.00;97.30;;;;;;5071225;28;20774;-84
2022/02/27 11:12:49;;;;;;;18.13;9.53;;;7.10;97.30;;;;;;5051885;28;20869;-84
2022/02/27 11:15:19;;;;;;;21.67;9.23;;;7.20;97.30;;;;;;5052420;28;20414;-85
2022/02/27 11:17:46;;;;;;;24.30;10.20;;;7.40;97.30;;;;;;5052254;28;20410;-84
2022/02/27 11:20:14;;;;;;;30.87;10.50;;;7.50;97.30;;;;;;5052106;28;20405;-84
2022/02/27 11:22:40;;;;;;;24.17;11.23;;;7.50;97.30;;;;;;5069322;28;20855;-84
2022/02/27 11:25:08;;;;;;;19.73;10.30;;;7.50;97.30;;;;;;5052221;28;20457;-84
2022/02/27 11:27:41;;;;;;;21.20;9.40;;;7.70;97.30;;;;;;5052274;28;20167;-84
2022/02/27 11:30:08;;;;;;;17.70;8.63;;;7.80;97.30;;;;;;5052755;28;20767;-83
2022/02/27 11:32:54;;;;;;;22.70;9.00;;;7.90;97.30;;;;;;5051895;28;20502;-84
2022/02/27 11:35:36;;;;;;;17.00;8.80;;;7.90;95.80;;;;;;5048939;28;20500;-84
2022/02/27 11:38:03;;;;;;;19.27;8.27;;;8.00;95.30;;;;;;5070012;28;20828;-84
2022/02/27 11:40:39;;;;;;;13.77;8.47;;;8.10;94.60;;;;;;5051905;28;20414;-83
2022/02/27 11:43:05;;;;;;;16.53;8.50;;;8.20;94.50;;;;;;5051956;28;20494;-84
2022/02/27 11:45:36;;;;;;;17.03;8.90;;;8.40;94.80;;;;;;5051757;28;20456;-84
2022/02/27 11:48:06;;;;;;;18.87;7.50;;;8.60;95.80;;;;;;5052253;28;20244;-84
2022/02/27 11:50:41;;;;;;;21.33;8.83;;;8.70;93.70;;;;;;5051320;28;20433;-83
2022/02/27 11:53:20;;;;;;;15.20;7.13;;;8.70;92.10;;;;;;5051786;28;20436;-85
2022/02/27 11:55:46;;;;;;;18.33;8.23;;;8.70;91.80;;;;;;5052946;28;20950;-83
2022/02/27 11:58:27;;;;;;;17.83;8.47;;;8.80;90.80;;;;;;5049226;28;20414;-83
2022/02/27 12:00:58;;;;;;;14.30;8.00;;;8.90;91.00;;;;;;5049357;28;20472;-84
2022/02/27 12:03:30;;;;;;;22.33;9.70;;;8.90;90.90;;;;;;5048689;28;20885;-84
2022/02/27 12:06:01;;;;;;;15.47;8.77;;;8.70;89.40;;;;;;5051352;28;20502;-84
2022/02/27 12:08:45;;;;;;;19.03;8.00;;;8.70;91.10;;;;;;5051901;28;20435;-84
2022/02/27 12:11:34;;;;;;;20.63;8.07;;;8.70;90.50;;;;;;5051701;28;20413;-84
2022/02/27 12:14:02;;;;;;;15.70;7.57;;;8.70;90.50;;;;;;5051160;28;20504;-84
2022/02/27 12:16:45;;;;;;;16.13;7.93;;;9.00;89.30;;;;;;5051588;28;20413;-84
2022/02/27 12:19:27;;;;;;;12.03;7.07;;;9.20;89.00;;;;;;5051559;28;20493;-84
2022/02/27 12:21:57;;;;;;;13.73;5.80;;;9.60;88.90;;;;;;5051627;28;20935;-84
2022/02/27 12:24:22;;;;;;;17.70;6.73;;;9.80;87.00;;;;;;5049162;28;20473;-85
2022/02/27 12:27:05;;;;;;;11.83;6.93;;;9.80;85.50;;;;;;5051644;28;20418;-85
2022/02/27 12:29:39;;;;;;;15.47;7.77;;;9.40;85.20;;;;;;5051609;28;20594;-84
2022/02/27 12:32:12;;;;;;;17.07;8.00;;;9.00;86.50;;;;;;5051687;28;20780;-84
2022/02/27 12:34:40;;;;;;;18.33;6.47;;;8.60;86.90;;;;;;5058955;28;20505;-84
2022/02/27 12:37:07;;;;;;;12.70;6.97;;;8.60;89.10;;;;;;5054907;28;20862;-84
2022/02/27 12:39:36;;;;;;;15.13;7.60;;;8.80;88.50;;;;;;5054820;28;20524;-84